Time;durP1;ratioP1;P1;durP2;ratioP2;P2;SDS_P1;SDS_P2;PMS_P1;PMS_P2;Temp;Humidity;BMP_temperature;BMP_pressure;BME280_temperature;BME280_humidity;BME280_pressure;Samples;Min_cycle;Max_cycle;Signal;HPM_P1;HPM_P2
2020/12/02 00:01:22;;;;;;;20.92;13.18;;;;;;;6.72;45.90;101039.78;5032172;28;20053;-60
2020/12/02 00:03:58;;;;;;;21.05;12.48;;;;;;;6.69;46.13;101046.84;5033225;28;20095;-61
2020/12/02 00:06:26;;;;;;;20.45;13.15;;;;;;;6.68;46.32;101050.34;5034324;28;20041;-61
2020/12/02 00:08:58;;;;;;;19.25;12.68;;;;;;;6.67;46.63;101051.25;5034000;28;20099;-61
2020/12/02 00:11:28;;;;;;;22.13;13.75;;;;;;;6.67;46.76;101060.84;5034019;28;20057;-61
2020/12/02 00:13:59;;;;;;;21.48;12.32;;;;;;;6.63;47.30;101047.06;5034126;28;20068;-61
2020/12/02 00:16:28;;;;;;;18.88;12.85;;;;;;;6.60;47.67;101046.31;5034059;28;20058;-61
2020/12/02 00:18:56;;;;;;;22.13;12.88;;;;;;;6.56;48.30;101052.53;5034128;28;20038;-61
2020/12/02 00:21:30;;;;;;;20.05;12.82;;;;;;;6.52;48.74;101036.16;5034257;28;20115;-61
2020/12/02 00:23:57;;;;;;;21.23;12.38;;;;;;;6.48;49.76;101037.16;5033977;28;20043;-62
2020/12/02 00:26:24;;;;;;;16.70;11.68;;;;;;;6.45;50.55;101042.47;5034130;28;20555;-61
2020/12/02 00:28:52;;;;;;;18.23;11.73;;;;;;;6.38;51.00;101040.06;5033991;28;20498;-61
2020/12/02 00:31:18;;;;;;;19.00;12.60;;;;;;;6.33;51.84;101047.19;5033404;28;20052;-61
2020/12/02 00:33:45;;;;;;;22.00;13.23;;;;;;;6.30;52.29;101049.91;5034091;28;20129;-61
2020/12/02 00:36:12;;;;;;;18.98;12.75;;;;;;;6.27;52.77;101050.03;5033632;28;20049;-61
2020/12/02 00:38:39;;;;;;;21.83;14.40;;;;;;;6.25;53.24;101045.75;5034052;28;20049;-61
2020/12/02 00:41:05;;;;;;;20.55;13.38;;;;;;;6.22;53.58;101049.31;5033862;28;20053;-61
2020/12/02 00:43:32;;;;;;;21.90;13.88;;;;;;;6.19;53.99;101050.25;5033972;28;20099;-61
2020/12/02 00:46:03;;;;;;;22.40;13.55;;;;;;;6.17;54.04;101052.09;5034033;28;20045;-61
2020/12/02 00:48:31;;;;;;;20.10;12.60;;;;;;;6.14;54.42;101039.16;5033760;28;20045;-61
2020/12/02 00:50:59;;;;;;;18.90;12.93;;;;;;;6.10;54.74;101037.56;5033652;28;20490;-61
2020/12/02 00:53:32;;;;;;;20.95;13.52;;;;;;;6.07;54.97;101028.97;5033850;28;20547;-61
2020/12/02 00:55:58;;;;;;;21.98;13.18;;;;;;;6.04;55.61;101041.22;5033687;28;20052;-61
2020/12/02 00:58:43;;;;;;;19.83;12.80;;;;;;;6.03;55.99;101046.47;5033678;28;20053;-61
2020/12/02 01:01:13;;;;;;;19.98;12.38;;;;;;;6.00;56.51;101050.03;5033460;28;20095;-61
2020/12/02 01:03:40;;;;;;;20.25;13.07;;;;;;;5.96;56.71;101037.97;5033464;28;20042;-61
2020/12/02 01:06:09;;;;;;;18.40;12.38;;;;;;;5.95;57.14;101030.22;5033649;28;20068;-61
2020/12/02 01:08:39;;;;;;;16.33;11.20;;;;;;;5.91;57.82;101046.84;5030738;28;20046;-62
2020/12/02 01:11:27;;;;;;;20.45;12.15;;;;;;;5.87;58.13;101044.34;5031377;28;20046;-61
2020/12/02 01:14:04;;;;;;;17.55;11.43;;;;;;;5.82;58.62;101048.84;5033223;28;20041;-61
2020/12/02 01:16:35;;;;;;;18.90;12.27;;;;;;;5.79;59.12;101045.47;5032892;28;20378;-60
2020/12/02 01:19:04;;;;;;;18.88;11.75;;;;;;;5.76;59.68;101050.78;5033124;28;20056;-61
2020/12/02 01:21:38;;;;;;;20.83;12.27;;;;;;;5.73;59.80;101052.59;5033223;28;20056;-61
2020/12/02 01:24:13;;;;;;;18.42;11.63;;;;;;;5.70;60.29;101042.28;5033038;28;20057;-60
2020/12/02 01:26:44;;;;;;;23.05;12.00;;;;;;;5.66;60.95;101043.28;5033129;28;20049;-62
2020/12/02 01:29:17;;;;;;;19.95;12.90;;;;;;;5.63;61.22;101058.13;5032892;28;20046;-61
2020/12/02 01:31:49;;;;;;;18.35;11.82;;;;;;;5.60;61.70;101048.69;5033040;28;20060;-61
2020/12/02 01:34:16;;;;;;;18.67;12.13;;;;;;;5.54;62.25;101051.47;5032969;28;20053;-61
2020/12/02 01:37:22;;;;;;;19.23;11.23;;;;;;;5.49;62.46;101038.56;5032909;28;20053;-61
2020/12/02 01:40:04;;;;;;;18.20;12.00;;;;;;;5.48;62.74;101034.25;5032970;28;20052;-60
2020/12/02 01:42:30;;;;;;;17.17;11.13;;;;;;;5.43;63.40;101030.97;5032690;28;20045;-61
2020/12/02 01:44:57;;;;;;;20.52;11.82;;;;;;;5.39;63.55;101043.19;5032720;28;20056;-61
2020/12/02 01:48:16;;;;;;;20.20;12.77;;;;;;;5.38;63.71;101036.31;5032893;28;20041;-61
2020/12/02 01:50:47;;;;;;;18.98;12.38;;;;;;;5.37;64.14;101034.63;5025046;28;20107;-61
2020/12/02 01:53:19;;;;;;;18.75;11.77;;;;;;;5.35;64.39;101022.53;5032610;28;20413;-61
2020/12/02 01:55:52;;;;;;;18.70;11.55;;;;;;;5.36;64.46;101008.63;5032673;28;20504;-61
2020/12/02 01:58:56;;;;;;;18.25;10.93;;;;;;;5.36;64.46;101000.84;5032650;28;20049;-61
2020/12/02 02:01:37;;;;;;;20.42;11.43;;;;;;;5.38;64.71;101004.22;5032228;28;20049;-61
2020/12/02 02:04:06;;;;;;;17.88;11.82;;;;;;;5.38;64.80;101005.09;5032342;28;20457;-61
2020/12/02 02:06:56;;;;;;;19.85;12.00;;;;;;;5.38;64.75;101005.09;5032627;28;20418;-61
2020/12/02 02:09:22;;;;;;;20.67;11.93;;;;;;;5.38;64.99;101002.50;5032241;28;20058;-61
2020/12/02 02:12:11;;;;;;;18.77;12.60;;;;;;;5.36;65.10;100993.88;5032434;28;20156;-61
2020/12/02 02:15:07;;;;;;;19.17;11.98;;;;;;;5.37;65.18;100990.38;5032475;28;20053;-61
2020/12/02 02:17:33;;;;;;;19.17;12.82;;;;;;;5.36;65.35;100982.63;5032501;28;20045;-61
2020/12/02 02:19:59;;;;;;;16.75;11.07;;;;;;;5.33;65.42;100975.75;5031933;28;20142;-61
2020/12/02 02:22:26;;;;;;;18.20;11.13;;;;;;;5.30;65.64;100978.44;5032325;28;20056;-61
2020/12/02 02:24:55;;;;;;;19.55;12.60;;;;;;;5.28;65.35;100969.84;5032261;28;20052;-61
2020/12/02 02:27:25;;;;;;;16.98;11.90;;;;;;;5.26;65.21;100962.97;5032267;28;20043;-61
2020/12/02 02:29:52;;;;;;;18.77;12.18;;;;;;;5.23;65.61;100951.78;5032180;28;20045;-61
2020/12/02 02:32:25;;;;;;;18.20;12.20;;;;;;;5.21;65.37;100956.16;5031234;28;20108;-61
2020/12/02 02:34:57;;;;;;;19.27;12.38;;;;;;;5.20;65.40;100958.81;5032254;28;20101;-61
2020/12/02 02:37:29;;;;;;;19.48;12.25;;;;;;;5.19;65.41;100946.69;5032201;28;20052;-61
2020/12/02 02:39:55;;;;;;;21.17;12.80;;;;;;;5.17;65.41;100938.09;5032079;28;20071;-61
2020/12/02 02:42:31;;;;;;;20.08;13.40;;;;;;;5.17;65.48;100935.50;5032113;28;20060;-61
2020/12/02 02:45:03;;;;;;;20.13;13.00;;;;;;;5.15;65.42;100947.69;5032136;28;20042;-61
2020/12/02 02:47:30;;;;;;;19.67;12.88;;;;;;;5.13;65.55;100939.06;5031981;28;20550;-61
2020/12/02 02:49:56;;;;;;;20.65;13.25;;;;;;;5.12;65.62;100933.03;5031921;28;20049;-61
2020/12/02 02:52:22;;;;;;;18.77;13.40;;;;;;;5.12;65.62;100932.19;5031817;28;20137;-62
2020/12/02 02:54:48;;;;;;;22.67;12.90;;;;;;;5.09;65.60;100925.31;5032067;28;20482;-61
2020/12/02 02:57:14;;;;;;;22.05;13.93;;;;;;;5.09;65.50;100920.09;5031825;28;20111;-61
2020/12/02 02:59:41;;;;;;;22.25;13.18;;;;;;;5.05;65.92;100908.97;5031924;28;20128;-61
2020/12/02 03:02:12;;;;;;;19.40;12.98;;;;;;;5.04;65.85;100902.06;5031802;28;20092;-61
2020/12/02 03:04:38;;;;;;;20.83;13.68;;;;;;;5.04;66.18;100902.06;5031897;28;20049;-61
2020/12/02 03:07:15;;;;;;;19.23;13.57;;;;;;;5.04;66.35;100898.59;5031410;28;20049;-61
2020/12/02 03:09:43;;;;;;;18.98;12.80;;;;;;;5.01;66.79;100889.13;5031946;28;20403;-61
2020/12/02 03:12:10;;;;;;;18.70;12.57;;;;;;;5.02;66.64;100885.66;5031628;28;20092;-60
2020/12/02 03:14:41;;;;;;;18.20;11.88;;;;;;;5.00;67.06;100877.06;5031852;28;20053;-61
2020/12/02 03:17:18;;;;;;;17.30;12.18;;;;;;;5.01;67.25;100877.91;5031717;28;20042;-61
2020/12/02 03:19:58;;;;;;;17.73;11.50;;;;;;;5.02;67.25;100870.03;5031844;28;20099;-61
2020/12/02 03:22:26;;;;;;;17.25;11.88;;;;;;;5.03;67.31;100866.53;5031847;28;20042;-61
2020/12/02 03:24:56;;;;;;;18.10;11.60;;;;;;;5.04;67.50;100862.19;5031629;28;20050;-61
2020/12/02 03:27:24;;;;;;;16.23;11.18;;;;;;;5.04;67.79;100862.19;5031710;28;20440;-61
2020/12/02 03:29:52;;;;;;;15.32;10.35;;;;;;;5.03;67.89;100856.13;5031657;28;20060;-61
2020/12/02 03:32:18;;;;;;;16.23;11.00;;;;;;;5.02;68.16;100848.41;5032194;28;20056;-61
2020/12/02 03:34:45;;;;;;;14.93;10.38;;;;;;;5.00;68.18;100857.97;5035270;28;20049;-61
2020/12/02 03:37:11;;;;;;;15.13;10.65;;;;;;;4.98;68.25;100844.19;5035210;28;20540;-61
2020/12/02 03:39:37;;;;;;;14.68;10.52;;;;;;;4.97;68.22;100850.28;5035292;28;20418;-61
2020/12/02 03:42:04;;;;;;;12.27;9.60;;;;;;;4.95;68.40;100846.88;5035014;28;20144;-61
2020/12/02 03:44:30;;;;;;;16.42;10.60;;;;;;;4.95;68.35;100839.06;5034916;28;20048;-61
2020/12/02 03:46:56;;;;;;;11.55;8.23;;;;;;;4.94;68.63;100837.38;5034892;28;20065;-61
2020/12/02 03:49:23;;;;;;;10.52;7.53;;;;;;;4.93;68.64;100840.88;5034853;28;20045;-61
2020/12/02 03:51:49;;;;;;;11.27;8.07;;;;;;;4.92;68.76;100834.00;5034809;28;20053;-60
2020/12/02 03:54:15;;;;;;;11.55;8.55;;;;;;;4.90;68.77;100841.81;5034841;28;20410;-61
2020/12/02 03:56:41;;;;;;;10.90;7.43;;;;;;;4.88;68.89;100844.47;5034758;28;20049;-61
2020/12/02 03:59:07;;;;;;;10.18;7.03;;;;;;;4.87;68.96;100836.72;5034702;28;20041;-61
2020/12/02 04:01:33;;;;;;;8.65;6.50;;;;;;;4.86;68.93;100827.22;5034388;28;20075;-61
2020/12/02 04:04:00;;;;;;;8.90;6.65;;;;;;;4.85;69.20;100828.09;5029643;28;20445;-61
2020/12/02 04:06:26;;;;;;;9.05;6.35;;;;;;;4.84;68.99;100832.47;5031105;28;20378;-61
2020/12/02 04:08:52;;;;;;;8.05;5.80;;;;;;;4.83;69.27;100824.72;5030903;28;20060;-61
2020/12/02 04:11:19;;;;;;;8.70;6.68;;;;;;;4.82;69.17;100828.22;5030831;28;20053;-61
2020/12/02 04:13:45;;;;;;;8.45;6.10;;;;;;;4.82;69.38;100826.44;5031066;28;20042;-61
2020/12/02 04:16:11;;;;;;;7.90;6.03;;;;;;;4.83;69.28;100824.72;5030999;28;20088;-61
2020/12/02 04:18:37;;;;;;;8.70;5.90;;;;;;;4.81;69.33;100816.13;5031248;28;20045;-61
2020/12/02 04:21:04;;;;;;;8.15;6.45;;;;;;;4.78;69.49;100827.47;5031169;28;20050;-61
2020/12/02 04:23:30;;;;;;;8.57;6.60;;;;;;;4.78;69.51;100832.66;5031098;28;20049;-61
2020/12/02 04:25:56;;;;;;;8.73;6.05;;;;;;;4.75;69.71;100827.56;5030908;28;20045;-61
2020/12/02 04:28:22;;;;;;;9.98;6.72;;;;;;;4.72;69.92;100828.50;5030873;28;20047;-61
2020/12/02 04:30:50;;;;;;;9.32;6.57;;;;;;;4.72;69.80;100830.25;5030727;28;20135;-61
2020/12/02 04:33:16;;;;;;;8.48;6.43;;;;;;;4.72;70.03;100825.03;5030825;28;20642;-61
2020/12/02 04:35:43;;;;;;;9.98;7.05;;;;;;;4.73;69.96;100827.59;5030755;28;20042;-61
2020/12/02 04:38:10;;;;;;;9.02;6.68;;;;;;;4.73;69.94;100825.00;5030472;28;20057;-61
2020/12/02 04:40:39;;;;;;;10.07;6.72;;;;;;;4.72;70.28;100825.91;5030767;28;20061;-61
2020/12/02 04:43:29;;;;;;;8.85;6.65;;;;;;;4.73;70.26;100817.19;5030113;28;20506;-61
2020/12/02 04:45:56;;;;;;;9.27;5.95;;;;;;;4.73;70.39;100818.94;5030616;28;20045;-61
2020/12/02 04:48:27;;;;;;;10.07;6.25;;;;;;;4.72;70.32;100820.72;5030412;28;20548;-61
2020/12/02 04:51:16;;;;;;;8.30;5.63;;;;;;;4.70;70.48;100827.69;5030362;28;20094;-61
2020/12/02 04:53:46;;;;;;;8.82;5.75;;;;;;;4.69;70.50;100818.19;5030534;28;20475;-61
2020/12/02 04:56:13;;;;;;;8.85;6.03;;;;;;;4.70;70.51;100827.69;5030401;28;20085;-61
2020/12/02 04:58:40;;;;;;;9.68;6.30;;;;;;;4.71;70.54;100824.22;5030394;28;20494;-61
2020/12/02 05:01:25;;;;;;;11.43;7.10;;;;;;;4.72;70.41;100823.31;5030161;28;20528;-61
2020/12/02 05:03:54;;;;;;;9.45;6.95;;;;;;;4.73;70.65;100827.59;5030121;28;20506;-61
2020/12/02 05:06:26;;;;;;;10.82;6.82;;;;;;;4.70;70.45;100834.66;5030324;28;20414;-61
2020/12/02 05:09:25;;;;;;;10.27;6.85;;;;;;;4.68;70.63;100819.09;5030148;28;20045;-61
2020/12/02 05:12:14;;;;;;;11.10;7.45;;;;;;;4.66;70.62;100826.09;5029915;28;20057;-61
2020/12/02 05:14:45;;;;;;;10.65;7.55;;;;;;;4.63;70.57;100810.59;5029987;28;20053;-61
2020/12/02 05:17:17;;;;;;;11.85;7.65;;;;;;;4.63;70.53;100813.19;5029815;28;20050;-60
2020/12/02 05:20:06;;;;;;;10.75;7.50;;;;;;;4.63;70.68;100814.94;5029615;28;20081;-61
2020/12/02 05:22:40;;;;;;;10.48;7.47;;;;;;;4.62;70.63;100805.44;5006681;28;20499;-61
2020/12/02 05:25:17;;;;;;;11.15;6.78;;;;;;;4.61;70.92;100804.59;5025907;28;20049;-61
2020/12/02 05:27:48;;;;;;;14.13;7.53;;;;;;;4.61;70.72;100794.19;5029796;28;20046;-61
2020/12/02 05:30:26;;;;;;;9.90;7.20;;;;;;;4.60;70.83;100789.91;5029531;28;20388;-61
2020/12/02 05:33:21;;;;;;;9.98;7.15;;;;;;;4.62;71.03;100784.66;5029684;28;20604;-61
2020/12/02 05:35:51;;;;;;;9.85;6.88;;;;;;;4.63;71.09;100781.16;5029651;28;20049;-61
2020/12/02 05:38:25;;;;;;;10.45;7.38;;;;;;;4.65;71.23;100789.75;5029448;28;20053;-61
2020/12/02 05:40:55;;;;;;;13.10;9.20;;;;;;;4.65;71.27;100785.41;5029365;28;20049;-61
2020/12/02 05:43:30;;;;;;;12.48;7.85;;;;;;;4.66;71.42;100794.91;5029688;28;20095;-61
2020/12/02 05:45:58;;;;;;;12.88;8.00;;;;;;;4.66;71.34;100781.03;5029467;28;20056;-61
2020/12/02 05:48:39;;;;;;;11.52;8.02;;;;;;;4.68;71.53;100782.69;5029568;28;20383;-61
2020/12/02 05:51:14;;;;;;;13.43;8.10;;;;;;;4.71;71.43;100777.41;5028973;28;20148;-61
2020/12/02 05:53:52;;;;;;;12.30;7.88;;;;;;;4.75;71.50;100772.97;5029203;28;20045;-61
2020/12/02 05:56:18;;;;;;;13.30;8.25;;;;;;;4.78;71.80;100775.47;5028807;28;20053;-61
2020/12/02 05:58:45;;;;;;;13.23;8.73;;;;;;;4.83;71.99;100778.75;5029083;28;20045;-61
2020/12/02 06:01:20;;;;;;;11.55;7.38;;;;;;;4.86;71.82;100790.81;5029217;28;20136;-61
2020/12/02 06:03:53;;;;;;;11.02;7.80;;;;;;;4.87;71.96;100795.97;5029030;28;20045;-62
2020/12/02 06:06:20;;;;;;;9.40;6.90;;;;;;;4.92;71.88;100801.03;5029092;28;20050;-62
2020/12/02 06:08:50;;;;;;;10.52;7.38;;;;;;;4.93;71.84;100800.13;5028714;28;20662;-63
2020/12/02 06:11:16;;;;;;;11.30;8.02;;;;;;;4.94;71.88;100808.75;5029081;28;20049;-61
2020/12/02 06:13:50;;;;;;;12.75;8.48;;;;;;;4.94;71.66;100804.44;5029037;28;20059;-63
2020/12/02 06:16:27;;;;;;;12.88;8.35;;;;;;;4.95;71.51;100811.34;5029053;28;20050;-61
2020/12/02 06:18:53;;;;;;;13.27;8.38;;;;;;;4.96;71.64;100814.78;5028929;28;20049;-63
2020/12/02 06:21:37;;;;;;;12.93;8.65;;;;;;;4.95;71.44;100807.88;5029032;28;20049;-63
2020/12/02 06:24:12;;;;;;;12.73;8.85;;;;;;;4.95;71.55;100803.53;5028789;28;20041;-62
2020/12/02 06:26:46;;;;;;;15.20;9.75;;;;;;;4.97;71.34;100801.72;5028879;28;20469;-62
2020/12/02 06:29:32;;;;;;;12.50;8.63;;;;;;;4.99;71.33;100793.88;5029034;28;20446;-63
2020/12/02 06:32:18;;;;;;;15.32;9.93;;;;;;;5.01;71.35;100805.06;5028687;28;20512;-62
2020/12/02 06:34:47;;;;;;;16.67;9.75;;;;;;;5.00;71.25;100806.84;5028400;28;20045;-61
2020/12/02 06:37:26;;;;;;;16.15;10.30;;;;;;;4.99;71.09;100818.13;5028692;28;20049;-62
2020/12/02 06:39:57;;;;;;;14.43;8.80;;;;;;;5.00;71.16;100832.84;5028761;28;20103;-62
2020/12/02 06:42:23;;;;;;;13.50;9.13;;;;;;;4.98;71.00;100829.44;5028689;28;20041;-62
2020/12/02 06:45:07;;;;;;;14.95;9.30;;;;;;;4.98;71.06;100833.78;5028754;28;20072;-61
2020/12/02 06:47:37;;;;;;;12.85;8.02;;;;;;;4.97;71.03;100832.94;5028960;28;20104;-62
2020/12/02 06:50:11;;;;;;;14.50;9.50;;;;;;;4.97;70.85;100834.69;5028521;28;20482;-59
2020/12/02 06:52:38;;;;;;;12.98;8.50;;;;;;;5.21;72.85;100831.28;5028571;28;20060;-62
2020/12/02 06:55:25;;;;;;;12.90;8.90;;;;;;;5.23;71.68;100829.50;5027863;28;20132;-61
2020/12/02 06:58:00;;;;;;;15.98;10.13;;;;;;;5.16;71.35;100827.97;5026348;28;20049;-61
2020/12/02 07:00:29;;;;;;;15.57;9.77;;;;;;;5.11;70.96;100829.03;5025900;28;20045;-61
2020/12/02 07:03:01;;;;;;;17.90;10.73;;;;;;;5.05;70.77;100837.88;5028587;28;20055;-61
2020/12/02 07:05:35;;;;;;;14.90;9.25;;;;;;;4.99;70.68;100833.75;5025896;28;20045;-61
2020/12/02 07:08:10;;;;;;;16.40;10.50;;;;;;;4.96;70.64;100840.78;5031173;28;20096;-61
2020/12/02 07:10:38;;;;;;;13.52;8.90;;;;;;;4.92;70.65;100832.22;5031680;28;20049;-62
2020/12/02 07:13:04;;;;;;;15.48;8.95;;;;;;;4.91;70.49;100838.31;5031408;28;20387;-61
2020/12/02 07:15:31;;;;;;;12.57;8.60;;;;;;;4.91;70.61;100840.91;5031620;28;20053;-61
2020/12/02 07:18:17;;;;;;;15.80;9.27;;;;;;;4.94;71.03;100846.03;5030745;28;20050;-61
2020/12/02 07:20:54;;;;;;;12.05;8.10;;;;;;;4.95;70.68;100854.69;5015230;28;20041;-62
2020/12/02 07:23:21;;;;;;;12.00;8.30;;;;;;;4.96;70.61;100856.38;5012259;28;20068;-62
2020/12/02 07:25:53;;;;;;;11.70;7.90;;;;;;;4.96;70.84;100856.38;5020293;28;20510;-58
2020/12/02 07:28:22;;;;;;;12.30;8.80;;;;;;;4.96;70.63;100854.63;5031327;28;20045;-61
2020/12/02 07:30:49;;;;;;;14.82;8.38;;;;;;;5.00;71.05;100852.78;5030433;28;20045;-61
2020/12/02 07:33:28;;;;;;;10.52;7.35;;;;;;;5.00;70.90;100853.66;5031202;28;20092;-61
2020/12/02 07:36:12;;;;;;;9.65;6.25;;;;;;;4.97;70.98;100861.53;5031198;28;20050;-61
2020/12/02 07:38:39;;;;;;;9.35;6.00;;;;;;;4.94;71.02;100856.44;5031189;28;20045;-61
2020/12/02 07:41:10;;;;;;;8.73;6.00;;;;;;;4.93;71.17;100859.06;5031152;28;20486;-61
2020/12/02 07:43:41;;;;;;;10.05;6.50;;;;;;;4.91;71.15;100877.31;5030807;28;20060;-61
2020/12/02 07:46:09;;;;;;;9.82;6.43;;;;;;;4.90;71.08;100878.22;5031145;28;20046;-61
2020/12/02 07:48:36;;;;;;;9.82;6.00;;;;;;;4.91;71.28;100890.31;5031385;28;20071;-62
2020/12/02 07:51:21;;;;;;;9.68;5.90;;;;;;;4.93;71.18;100888.53;5031137;28;20053;-61
2020/12/02 07:54:00;;;;;;;11.52;7.18;;;;;;;4.94;71.04;100881.56;5030485;28;20425;-61
2020/12/02 07:56:34;;;;;;;12.07;7.68;;;;;;;4.94;70.88;100872.03;5030303;28;20069;-62
2020/12/02 07:59:13;;;;;;;11.27;7.68;;;;;;;4.94;70.78;100882.44;5030375;28;20045;-61
2020/12/02 08:02:04;;;;;;;15.77;9.18;;;;;;;4.92;70.58;100880.78;5029687;28;20053;-61
2020/12/02 08:04:39;;;;;;;13.95;8.73;;;;;;;4.90;70.44;100880.81;5027678;28;20057;-61
2020/12/02 08:07:11;;;;;;;14.15;8.63;;;;;;;4.90;70.76;100875.63;5011050;28;20464;-61
2020/12/02 08:09:43;;;;;;;13.90;8.73;;;;;;;4.88;70.63;100880.03;5011378;28;20053;-61
2020/12/02 08:12:15;;;;;;;13.70;9.35;;;;;;;4.86;70.50;100884.41;5010891;28;20053;-61
2020/12/02 08:14:59;;;;;;;16.38;9.98;;;;;;;4.84;70.51;100871.47;5010961;28;20046;-61
2020/12/02 08:17:28;;;;;;;15.70;9.52;;;;;;;4.84;70.51;100863.66;5011169;28;20045;-61
2020/12/02 08:19:58;;;;;;;15.77;9.43;;;;;;;4.85;70.73;100864.50;5010616;28;20418;-61
2020/12/02 08:22:28;;;;;;;15.30;9.20;;;;;;;4.86;70.70;100871.41;5010999;28;20422;-61
2020/12/02 08:25:21;;;;;;;11.40;8.00;;;;;;;4.85;70.90;100859.31;5010461;28;20502;-61
2020/12/02 08:27:50;;;;;;;14.13;8.85;;;;;;;4.84;70.91;100860.22;5010706;28;20061;-61
2020/12/02 08:30:23;;;;;;;15.07;10.25;;;;;;;4.86;70.92;100884.41;5010520;28;20056;-61
2020/12/02 08:33:08;;;;;;;16.15;9.82;;;;;;;4.87;71.06;100881.75;5010770;28;20141;-58
2020/12/02 08:35:41;;;;;;;10.75;7.38;;;;;;;4.87;71.11;100881.75;5010553;28;20053;-58
2020/12/02 08:38:15;;;;;;;12.20;7.50;;;;;;;4.87;71.24;100889.56;5010515;28;20046;-58
2020/12/02 08:40:46;;;;;;;9.80;7.18;;;;;;;4.87;71.13;100888.72;5016504;28;20402;-58
2020/12/02 08:43:25;;;;;;;9.85;6.43;;;;;;;4.87;71.22;100888.72;5030153;28;20053;-58
2020/12/02 08:46:07;;;;;;;9.05;6.53;;;;;;;4.89;71.33;100889.53;5028093;28;20405;-58
2020/12/02 08:48:35;;;;;;;8.57;6.30;;;;;;;4.88;71.20;100882.63;5029216;28;20042;-58
2020/12/02 08:51:03;;;;;;;8.23;5.68;;;;;;;4.88;71.50;100893.03;5029603;28;20049;-59
2020/12/02 08:53:31;;;;;;;8.90;6.20;;;;;;;4.88;71.49;100886.06;5029953;28;20115;-61
2020/12/02 08:55:58;;;;;;;9.25;6.18;;;;;;;4.88;71.55;100887.84;5028989;28;20049;-61
2020/12/02 08:58:24;;;;;;;9.18;5.80;;;;;;;4.87;71.63;100886.13;5029874;28;20065;-61
2020/12/02 09:00:51;;;;;;;10.48;5.78;;;;;;;4.87;71.76;100901.72;5030075;28;20049;-61
2020/12/02 09:03:21;;;;;;;7.38;5.43;;;;;;;4.85;71.88;100891.38;5029330;28;20054;-61
2020/12/02 09:05:48;;;;;;;7.63;5.47;;;;;;;4.85;71.94;100887.91;5029591;28;20104;-62
2020/12/02 09:08:15;;;;;;;9.25;6.22;;;;;;;4.87;72.06;100883.53;5029300;28;20093;-61
2020/12/02 09:10:42;;;;;;;7.38;5.53;;;;;;;4.87;72.10;100878.31;5029754;28;20050;-61
2020/12/02 09:13:08;;;;;;;9.82;5.93;;;;;;;4.86;72.53;100876.63;5029280;28;20049;-61
2020/12/02 09:15:34;;;;;;;8.70;5.80;;;;;;;4.84;72.31;100876.66;5029853;28;20049;-61
2020/12/02 09:18:00;;;;;;;7.70;5.00;;;;;;;4.82;72.30;100878.44;5029563;28;20072;-61
2020/12/02 09:20:27;;;;;;;9.85;5.75;;;;;;;4.83;72.51;100885.38;5028602;28;20047;-61
2020/12/02 09:22:53;;;;;;;6.25;4.40;;;;;;;4.83;72.61;100887.13;5029234;28;20046;-61
2020/12/02 09:25:20;;;;;;;5.47;4.05;;;;;;;4.81;72.61;100886.31;5029037;28;20045;-61
2020/12/02 09:27:47;;;;;;;8.65;5.05;;;;;;;4.82;72.56;100890.63;5029530;28;20100;-61
2020/12/02 09:30:13;;;;;;;7.30;5.10;;;;;;;4.82;72.68;100901.84;5027603;28;20048;-62
2020/12/02 09:32:39;;;;;;;7.82;5.22;;;;;;;4.84;72.66;100891.44;5028594;28;20050;-62
2020/12/02 09:35:07;;;;;;;6.28;4.82;;;;;;;4.86;72.69;100897.41;5029140;28;20501;-62
2020/12/02 09:37:34;;;;;;;6.90;5.10;;;;;;;4.90;72.90;100893.81;5029274;28;20042;-61
2020/12/02 09:40:05;;;;;;;6.07;4.65;;;;;;;4.92;72.89;100905.03;5028540;28;20486;-61
2020/12/02 09:42:50;;;;;;;7.05;4.60;;;;;;;4.94;72.84;100907.56;5028865;28;20042;-61
2020/12/02 09:45:50;;;;;;;5.97;4.40;;;;;;;4.93;72.94;100911.06;5028875;28;20057;-62
2020/12/02 09:48:19;;;;;;;5.25;3.92;;;;;;;4.93;72.95;100916.28;5029051;28;20053;-61
2020/12/02 09:50:46;;;;;;;5.63;4.32;;;;;;;4.93;73.00;100940.56;5029521;28;20052;-61
2020/12/02 09:53:19;;;;;;;5.75;4.32;;;;;;;4.96;72.87;100952.59;5028679;28;20057;-61
2020/12/02 09:55:47;;;;;;;7.47;4.53;;;;;;;4.98;72.95;100943.03;5028895;28;20084;-61
2020/12/02 09:58:15;;;;;;;5.60;4.28;;;;;;;4.99;72.91;100949.91;5028397;28;20534;-62
2020/12/02 10:00:41;;;;;;;6.82;4.93;;;;;;;4.98;72.92;100941.25;5028397;28;20095;-61
2020/12/02 10:03:16;;;;;;;7.95;5.80;;;;;;;4.97;72.76;100946.50;5028429;28;20046;-61
2020/12/02 10:06:03;;;;;;;10.35;6.38;;;;;;;4.94;72.84;100951.78;5026427;28;20056;-61
2020/12/02 10:08:36;;;;;;;8.25;5.22;;;;;;;4.93;72.83;100948.34;5028674;28;20060;-62
2020/12/02 10:11:07;;;;;;;6.97;4.57;;;;;;;4.89;72.64;100950.19;5028649;28;20097;-62
2020/12/02 10:14:09;;;;;;;6.88;4.97;;;;;;;4.88;72.57;100952.84;5028822;28;20045;-61
2020/12/02 10:17:16;;;;;;;8.70;5.57;;;;;;;4.88;72.48;100963.25;5028605;28;20060;-61
2020/12/02 10:19:54;;;;;;;8.02;5.53;;;;;;;4.87;72.46;100957.16;5028722;28;20056;-61
2020/12/02 10:22:51;;;;;;;7.13;5.13;;;;;;;4.87;72.66;100954.56;5028860;28;20051;-61
2020/12/02 10:25:43;;;;;;;9.60;5.63;;;;;;;4.89;72.57;100949.34;5028090;28;20060;-61
2020/12/02 10:28:22;;;;;;;8.65;5.72;;;;;;;4.90;72.72;100944.09;5028613;28;20503;-61
2020/12/02 10:31:02;;;;;;;8.32;5.43;;;;;;;4.92;72.57;100941.44;5028266;28;20045;-61
2020/12/02 10:33:52;;;;;;;7.60;5.50;;;;;;;4.95;72.56;100927.50;5028722;28;20054;-61
2020/12/02 10:36:21;;;;;;;10.38;6.47;;;;;;;5.00;72.51;100925.59;5028511;28;20052;-62
2020/12/02 10:38:53;;;;;;;10.95;6.43;;;;;;;5.00;72.64;100923.88;5028676;28;20053;-61
2020/12/02 10:41:47;;;;;;;6.05;4.72;;;;;;;5.11;72.79;100922.69;5029181;28;20052;-61
2020/12/02 10:44:32;;;;;;;9.50;6.18;;;;;;;5.09;72.53;100911.47;5031557;28;20045;-61
2020/12/02 10:47:32;;;;;;;10.07;5.47;;;;;;;5.08;72.58;100908.03;5031876;28;20505;-61
2020/12/02 10:49:58;;;;;;;10.23;5.70;;;;;;;5.07;72.79;100899.34;5032277;28;20049;-60
2020/12/02 10:52:25;;;;;;;5.18;4.45;;;;;;;5.07;72.96;100898.50;5032201;28;20409;-61
2020/12/02 10:54:51;;;;;;;5.35;3.72;;;;;;;5.06;73.05;100902.84;5032233;28;20049;-62
2020/12/02 10:57:20;;;;;;;5.35;3.40;;;;;;;5.04;73.22;100896.00;5032115;28;20049;-62
2020/12/02 10:59:52;;;;;;;5.00;3.30;;;;;;;5.02;73.30;100901.25;5032009;28;20046;-62
2020/12/02 11:02:24;;;;;;;4.93;3.33;;;;;;;5.02;73.49;100905.63;5032045;28;20045;-60
2020/12/02 11:04:50;;;;;;;4.63;3.42;;;;;;;5.02;73.59;100903.00;5032139;28;20051;-62
2020/12/02 11:07:25;;;;;;;4.47;3.60;;;;;;;5.03;73.74;100907.31;5031689;28;20053;-61
2020/12/02 11:09:51;;;;;;;4.88;3.60;;;;;;;5.16;74.39;100898.22;5032119;28;20049;-61
2020/12/02 11:12:48;;;;;;;8.23;5.90;;;;;;;5.32;74.84;100901.19;5031558;28;20056;-60
2020/12/02 11:15:36;;;;;;;7.00;4.32;;;;;;;5.34;74.55;100904.56;5030063;28;20057;-59
2020/12/02 11:18:17;;;;;;;6.72;3.88;;;;;;;5.32;74.39;100892.53;5031283;28;20486;-59
2020/12/02 11:21:24;;;;;;;3.90;2.70;;;;;;;5.29;74.38;100887.44;5031915;28;20053;-61
2020/12/02 11:24:15;;;;;;;4.00;3.10;;;;;;;5.28;74.41;100891.78;5030236;28;20060;-61
2020/12/02 11:26:42;;;;;;;3.63;2.58;;;;;;;5.28;74.45;100899.59;5019843;28;20045;-59
2020/12/02 11:29:12;;;;;;;3.72;2.67;;;;;;;5.30;74.52;100897.78;5019296;28;20046;-59
2020/12/02 11:31:47;;;;;;;6.90;4.30;;;;;;;5.31;74.38;100909.06;5030340;28;20045;-59
2020/12/02 11:34:32;;;;;;;10.35;6.35;;;;;;;5.30;74.13;100913.38;5031124;28;20489;-59
2020/12/02 11:37:15;;;;;;;91.70;43.85;;;;;;;5.29;74.07;100913.44;5013905;28;20068;-59
2020/12/02 11:40:01;;;;;;;75.43;38.00;;;;;;;5.26;74.07;100905.72;5030938;28;20386;-59
2020/12/02 11:42:42;;;;;;;347.00;173.73;;;;;;;5.22;74.05;100907.59;5016520;28;20060;-58
2020/12/02 11:45:17;;;;;;;105.68;55.75;;;;;;;5.23;73.88;100922.28;5027337;28;20386;-58
2020/12/02 11:47:49;;;;;;;22.90;14.07;;;;;;;5.22;73.94;100924.03;5010855;28;20056;-58
2020/12/02 11:50:29;;;;;;;8.65;5.47;;;;;;;5.22;73.87;100924.03;5028620;28;20042;-58
2020/12/02 11:53:13;;;;;;;11.15;7.43;;;;;;;5.19;73.70;100921.56;5029322;28;20053;-59